createdAt,value
2017-12-03T00:01:07.072Z,61.27
2017-12-03T00:03:34.692Z,54.40
2017-12-03T00:06:02.272Z,63.90
2017-12-03T00:08:29.925Z,61.40
2017-12-03T00:10:57.509Z,55.37
2017-12-03T00:13:25.113Z,55.00
2017-12-03T00:15:53.468Z,65.27
2017-12-03T00:18:21.052Z,56.13
2017-12-03T00:20:49.480Z,59.30
2017-12-03T00:23:17.072Z,62.23
2017-12-03T00:25:44.710Z,51.57
2017-12-03T00:28:12.314Z,56.90
2017-12-03T00:30:40.736Z,58.07
2017-12-03T00:33:08.271Z,59.90
2017-12-03T00:35:35.977Z,61.40
2017-12-03T00:38:03.625Z,61.23
2017-12-03T00:40:31.260Z,58.87
2017-12-03T00:42:59.595Z,51.37
2017-12-03T00:45:27.217Z,59.33
2017-12-03T00:47:54.793Z,53.93
2017-12-03T00:50:22.427Z,49.80
2017-12-03T00:52:50.761Z,52.63
2017-12-03T00:55:18.365Z,54.57
2017-12-03T00:57:45.969Z,48.10
2017-12-03T01:00:13.558Z,44.90
2017-12-03T01:02:41.195Z,45.83
2017-12-03T01:05:08.907Z,47.23
2017-12-03T01:07:37.266Z,44.37
2017-12-03T01:10:04.931Z,41.90
2017-12-03T01:12:32.554Z,43.43
2017-12-03T01:15:00.147Z,36.63
2017-12-03T01:17:27.742Z,38.27
2017-12-03T01:19:55.335Z,40.13
2017-12-03T01:22:22.934Z,39.63
2017-12-03T01:24:50.498Z,40.37
2017-12-03T01:27:18.103Z,39.50
2017-12-03T01:29:45.661Z,42.03
2017-12-03T01:32:13.235Z,46.33
2017-12-03T01:34:42.241Z,36.43
2017-12-03T01:37:10.576Z,38.53
2017-12-03T01:39:39.095Z,44.63
2017-12-03T01:42:06.723Z,43.60
2017-12-03T01:44:35.067Z,39.97
2017-12-03T01:47:02.650Z,47.10
2017-12-03T01:49:31.066Z,48.03
2017-12-03T01:51:58.625Z,51.50
2017-12-03T01:54:26.186Z,45.53
2017-12-03T01:56:53.789Z,43.00
2017-12-03T01:59:21.373Z,43.43
2017-12-03T02:01:49.725Z,45.40
2017-12-03T02:04:18.273Z,39.00
2017-12-03T02:06:46.227Z,38.63
2017-12-03T02:09:13.842Z,47.53
2017-12-03T02:11:41.432Z,40.00
2017-12-03T02:14:09.763Z,37.67
2017-12-03T02:16:37.332Z,43.13
2017-12-03T02:19:06.896Z,38.50
2017-12-03T02:21:34.485Z,43.40
2017-12-03T02:24:02.079Z,42.30
2017-12-03T02:26:29.652Z,46.27
2017-12-03T02:28:58.051Z,40.10
2017-12-03T02:31:26.403Z,49.27
2017-12-03T02:33:53.972Z,37.63
2017-12-03T02:36:22.294Z,40.80
2017-12-03T02:38:49.890Z,37.20
2017-12-03T02:41:17.452Z,45.97
2017-12-03T02:43:45.065Z,42.93
2017-12-03T02:46:12.668Z,43.50
2017-12-03T02:48:40.314Z,42.87
2017-12-03T02:51:07.993Z,42.03
2017-12-03T02:53:35.633Z,46.00
2017-12-03T02:56:03.219Z,41.17
2017-12-03T02:58:30.807Z,50.27
2017-12-03T03:00:59.225Z,41.43
2017-12-03T03:03:26.800Z,42.77
2017-12-03T03:05:54.401Z,50.17
2017-12-03T03:08:21.970Z,40.80
2017-12-03T03:10:50.413Z,42.73
2017-12-03T03:13:17.976Z,43.43
2017-12-03T03:15:45.571Z,45.33
2017-12-03T03:18:13.901Z,41.80
2017-12-03T03:20:41.871Z,39.77
2017-12-03T03:23:09.530Z,45.73
2017-12-03T03:25:37.124Z,42.07
2017-12-03T03:28:04.698Z,37.40
2017-12-03T03:30:33.198Z,33.57
2017-12-03T03:33:01.559Z,44.43
2017-12-03T03:35:29.101Z,44.13
2017-12-03T03:37:56.679Z,50.10
2017-12-03T03:40:24.233Z,44.37
2017-12-03T03:42:51.856Z,41.57
2017-12-03T03:45:19.437Z,46.53
2017-12-03T03:47:47.017Z,42.07
2017-12-03T03:50:14.734Z,40.60
2017-12-03T03:52:42.277Z,41.50
2017-12-03T03:55:09.852Z,46.43
2017-12-03T03:57:37.418Z,50.10
2017-12-03T04:00:05.014Z,38.43
2017-12-03T04:02:32.609Z,40.00
2017-12-03T04:05:00.946Z,40.67
2017-12-03T04:07:28.518Z,39.20
2017-12-03T04:09:56.125Z,50.83
2017-12-03T04:12:23.681Z,44.60
2017-12-03T04:14:51.275Z,49.07
2017-12-03T04:17:18.814Z,48.83
2017-12-03T04:19:46.378Z,43.60
2017-12-03T04:22:13.963Z,46.33
2017-12-03T04:24:41.518Z,52.87
2017-12-03T04:27:09.114Z,48.33
2017-12-03T04:29:36.689Z,54.03
2017-12-03T04:32:05.041Z,42.30
2017-12-03T04:34:32.601Z,49.97
2017-12-03T04:37:00.166Z,48.80
2017-12-03T04:39:27.717Z,41.47
2017-12-03T04:41:55.314Z,36.73
2017-12-03T04:44:23.642Z,47.07
2017-12-03T04:46:51.293Z,46.10
2017-12-03T04:49:18.836Z,48.30
2017-12-03T04:51:46.410Z,45.00
2017-12-03T04:54:13.994Z,45.30
2017-12-03T04:56:41.546Z,51.67
2017-12-03T04:59:09.133Z,44.07
2017-12-03T05:01:36.669Z,49.57
2017-12-03T05:04:04.260Z,50.40
2017-12-03T05:06:31.833Z,50.33
2017-12-03T05:09:00.176Z,40.77
2017-12-03T05:11:27.741Z,39.03
2017-12-03T05:13:55.320Z,39.00
2017-12-03T05:16:22.920Z,39.67
2017-12-03T05:18:51.233Z,41.33
2017-12-03T05:21:18.912Z,39.60
2017-12-03T05:23:46.481Z,40.10
2017-12-03T05:26:14.062Z,38.97
2017-12-03T05:28:42.425Z,36.77
2017-12-03T05:31:09.987Z,34.63
2017-12-03T05:33:37.531Z,30.23
2017-12-03T05:36:05.101Z,35.90
2017-12-03T05:38:32.665Z,36.10
2017-12-03T05:41:01.029Z,34.07
2017-12-03T05:43:28.573Z,37.80
2017-12-03T05:45:56.927Z,33.17
2017-12-03T05:48:24.469Z,38.57
2017-12-03T05:50:52.801Z,34.13
2017-12-03T05:53:20.366Z,34.97
2017-12-03T05:55:47.937Z,35.50
2017-12-03T05:58:15.493Z,31.63
2017-12-03T06:00:43.102Z,31.33
2017-12-03T06:03:10.646Z,46.03
2017-12-03T06:05:38.994Z,35.40
2017-12-03T06:08:06.582Z,32.33
2017-12-03T06:10:34.979Z,39.60
2017-12-03T06:13:02.558Z,27.70
2017-12-03T06:15:30.132Z,34.30
2017-12-03T06:17:57.699Z,31.60
2017-12-03T06:20:25.261Z,28.10
2017-12-03T06:22:52.822Z,27.93
2017-12-03T06:25:21.166Z,29.67
2017-12-03T06:27:48.865Z,32.00
2017-12-03T06:30:16.414Z,44.00
2017-12-03T06:32:43.961Z,34.20
2017-12-03T06:35:11.567Z,37.97
2017-12-03T06:37:39.125Z,36.73
2017-12-03T06:40:06.683Z,41.10
2017-12-03T06:42:34.217Z,43.43
2017-12-03T06:45:01.810Z,35.93
2017-12-03T06:47:29.363Z,36.40
2017-12-03T06:49:56.904Z,37.40
2017-12-03T06:52:24.506Z,44.90
2017-12-03T06:54:52.368Z,44.70
2017-12-03T06:57:20.294Z,36.80
2017-12-03T06:59:47.852Z,42.40
2017-12-03T07:02:15.501Z,40.53
2017-12-03T07:04:43.074Z,34.87
2017-12-03T07:07:10.661Z,31.50
2017-12-03T07:09:38.224Z,41.50
2017-12-03T07:12:05.782Z,36.17
2017-12-03T07:14:33.365Z,43.27
2017-12-03T07:17:01.098Z,36.50
2017-12-03T07:19:28.658Z,37.33
2017-12-03T07:21:56.205Z,43.77
2017-12-03T07:24:23.782Z,39.37
2017-12-03T07:26:51.335Z,37.20
2017-12-03T07:29:18.925Z,40.40
2017-12-03T07:31:46.502Z,36.80
2017-12-03T07:34:14.896Z,34.87
2017-12-03T07:36:43.237Z,31.93
2017-12-03T07:39:10.806Z,30.93
2017-12-03T07:41:38.415Z,34.07
2017-12-03T07:44:06.005Z,38.87
2017-12-03T07:46:33.538Z,44.03
2017-12-03T07:49:01.106Z,35.47
2017-12-03T07:51:28.651Z,34.63
2017-12-03T07:53:56.207Z,43.50
2017-12-03T07:56:23.898Z,42.63
2017-12-03T07:58:51.503Z,36.50
2017-12-03T08:01:19.063Z,33.60
2017-12-03T08:03:46.632Z,38.60
2017-12-03T08:06:14.994Z,39.03
2017-12-03T08:08:42.572Z,39.90
2017-12-03T08:11:10.913Z,42.10
2017-12-03T08:13:38.489Z,44.10
2017-12-03T08:16:06.045Z,38.23
2017-12-03T08:18:33.630Z,41.67
2017-12-03T08:21:01.959Z,43.90
2017-12-03T08:23:29.556Z,44.30
2017-12-03T08:25:57.526Z,40.20
2017-12-03T08:28:25.818Z,40.63
2017-12-03T08:30:54.146Z,43.37
2017-12-03T08:33:21.775Z,41.13
2017-12-03T08:35:49.334Z,47.20
2017-12-03T08:38:17.682Z,39.87
2017-12-03T08:40:45.241Z,38.37
2017-12-03T08:43:12.794Z,41.30
2017-12-03T08:45:40.364Z,39.47
2017-12-03T08:48:07.897Z,34.77
2017-12-03T08:50:35.469Z,46.07
2017-12-03T08:53:03.041Z,39.70
2017-12-03T08:55:30.613Z,46.43
2017-12-03T08:57:58.953Z,43.37
2017-12-03T09:00:26.521Z,45.10
2017-12-03T09:02:54.098Z,37.77
2017-12-03T09:05:21.693Z,44.23
2017-12-03T09:07:50.096Z,36.07
2017-12-03T09:10:17.609Z,37.80
2017-12-03T09:12:45.216Z,47.97
2017-12-03T09:15:12.852Z,39.50
2017-12-03T09:17:41.217Z,51.63
2017-12-03T09:20:08.835Z,39.97
2017-12-03T09:22:36.417Z,51.13
2017-12-03T09:25:03.989Z,41.80
2017-12-03T09:27:31.554Z,43.10
2017-12-03T09:29:59.145Z,40.77
2017-12-03T09:32:26.694Z,42.30
2017-12-03T09:34:55.031Z,42.27
2017-12-03T09:37:22.981Z,43.27
2017-12-03T09:39:50.541Z,40.53
2017-12-03T09:42:18.407Z,33.57
2017-12-03T09:44:46.029Z,31.60
2017-12-03T09:47:13.558Z,35.07
2017-12-03T09:49:41.125Z,32.80
2017-12-03T09:52:08.717Z,29.73
2017-12-03T09:54:37.030Z,28.00
2017-12-03T09:57:04.599Z,34.50
2017-12-03T09:59:32.137Z,35.43
2017-12-03T10:01:59.697Z,38.13
2017-12-03T10:04:27.251Z,39.43
2017-12-03T10:06:54.828Z,31.97
2017-12-03T10:09:22.380Z,31.90
2017-12-03T10:11:50.431Z,32.70
2017-12-03T10:14:18.787Z,38.27
2017-12-03T10:16:46.379Z,35.33
2017-12-03T10:19:14.745Z,35.60
2017-12-03T10:21:43.077Z,35.10
2017-12-03T10:24:10.651Z,25.77
2017-12-03T10:26:38.218Z,34.87
2017-12-03T10:29:05.826Z,29.50
2017-12-03T10:31:33.424Z,26.07
2017-12-03T10:34:00.977Z,35.50
2017-12-03T10:36:28.527Z,29.97
2017-12-03T10:38:56.117Z,35.77
2017-12-03T10:41:23.722Z,36.20
2017-12-03T10:43:52.070Z,33.80
2017-12-03T10:46:19.765Z,32.30
2017-12-03T10:48:48.088Z,33.60
2017-12-03T10:51:15.662Z,30.13
2017-12-03T10:53:56.857Z,40.10
2017-12-03T10:56:24.609Z,37.37
2017-12-03T10:58:52.218Z,36.73
2017-12-03T11:01:19.858Z,30.53
2017-12-03T11:03:48.229Z,31.77
2017-12-03T11:06:16.598Z,36.33
2017-12-03T11:08:53.764Z,33.70
2017-12-03T11:11:23.887Z,35.00
2017-12-03T11:13:51.489Z,35.63
2017-12-03T11:16:19.937Z,29.93
2017-12-03T11:18:47.595Z,28.10
2017-12-03T11:21:15.185Z,28.30
2017-12-03T11:23:54.391Z,28.43
2017-12-03T11:26:23.011Z,30.53
2017-12-03T11:28:51.431Z,30.40
2017-12-03T11:31:18.999Z,25.00
2017-12-03T11:33:46.737Z,31.00
2017-12-03T11:36:14.305Z,27.20
2017-12-03T11:38:45.937Z,26.63
2017-12-03T11:41:13.769Z,26.63
2017-12-03T11:43:41.355Z,25.57
2017-12-03T11:46:09.702Z,23.00
2017-12-03T11:48:37.274Z,25.87
2017-12-03T11:51:04.854Z,23.23
2017-12-03T11:53:33.222Z,24.17
2017-12-03T11:56:00.834Z,29.23
2017-12-03T11:58:28.439Z,22.47
2017-12-03T12:00:56.020Z,25.33
2017-12-03T12:03:24.574Z,31.27
2017-12-03T12:05:52.143Z,28.80
2017-12-03T12:08:19.709Z,24.67
2017-12-03T12:10:47.312Z,24.37
2017-12-03T12:13:15.669Z,28.23
2017-12-03T12:15:44.021Z,22.93
2017-12-03T12:18:11.680Z,22.97
2017-12-03T12:20:39.250Z,24.17
2017-12-03T12:23:06.836Z,26.60
2017-12-03T12:25:35.201Z,24.40
2017-12-03T12:28:02.770Z,23.17
2017-12-03T12:30:31.121Z,22.97
2017-12-03T12:32:59.509Z,24.47
2017-12-03T12:35:27.073Z,23.77
2017-12-03T12:37:54.642Z,23.80
2017-12-03T12:40:22.235Z,23.13
2017-12-03T12:42:49.858Z,24.80
2017-12-03T12:45:17.429Z,25.63
2017-12-03T12:47:45.014Z,23.40
2017-12-03T12:50:12.574Z,21.00
2017-12-03T12:52:40.874Z,26.57
2017-12-03T12:55:08.450Z,22.20
2017-12-03T12:57:36.223Z,26.33
2017-12-03T13:00:03.810Z,16.33
2017-12-03T13:02:31.396Z,23.73
2017-12-03T13:04:59.822Z,23.07
2017-12-03T13:07:27.394Z,18.33
2017-12-03T13:09:55.015Z,20.03
2017-12-03T13:12:22.602Z,23.20
2017-12-03T13:14:50.204Z,19.63
2017-12-03T13:17:17.775Z,21.90
2017-12-03T13:19:46.171Z,18.80
2017-12-03T13:22:14.558Z,25.60
2017-12-03T13:24:42.132Z,21.57
2017-12-03T13:27:09.762Z,20.37
2017-12-03T13:29:38.119Z,17.00
2017-12-03T13:32:05.772Z,22.27
2017-12-03T13:34:33.345Z,18.50
2017-12-03T13:37:00.988Z,21.53
2017-12-03T13:39:28.542Z,22.40
2017-12-03T13:41:56.344Z,20.03
2017-12-03T13:44:24.759Z,22.53
2017-12-03T13:46:52.398Z,20.47
2017-12-03T13:49:20.773Z,19.70
2017-12-03T13:51:49.093Z,24.43
2017-12-03T13:54:16.702Z,20.53
2017-12-03T13:56:45.117Z,24.60
2017-12-03T13:59:12.750Z,21.63
2017-12-03T14:01:41.118Z,23.67
2017-12-03T14:04:09.805Z,25.37
2017-12-03T14:06:37.405Z,26.80
2017-12-03T14:09:05.030Z,29.27
2017-12-03T14:11:33.380Z,23.77
2017-12-03T14:14:01.035Z,26.20
2017-12-03T14:16:28.615Z,23.30
2017-12-03T14:18:56.194Z,23.47
2017-12-03T14:21:24.540Z,25.00
2017-12-03T14:23:52.114Z,22.13
2017-12-03T14:26:19.682Z,21.53
2017-12-03T14:28:47.292Z,25.50
2017-12-03T14:31:15.061Z,23.33
2017-12-03T14:33:42.686Z,22.67
2017-12-03T14:36:11.033Z,23.70
2017-12-03T14:38:38.621Z,23.40
2017-12-03T14:41:06.206Z,21.07
2017-12-03T14:43:33.802Z,24.83
2017-12-03T14:46:01.423Z,22.13
2017-12-03T14:48:29.779Z,24.40
2017-12-03T14:50:57.370Z,18.83
2017-12-03T14:53:24.954Z,21.97
2017-12-03T14:55:52.534Z,26.03
2017-12-03T14:58:20.117Z,21.00
2017-12-03T15:00:47.794Z,21.30
2017-12-03T15:03:16.190Z,20.47
2017-12-03T15:05:44.550Z,20.70
2017-12-03T15:08:12.205Z,20.93
2017-12-03T15:10:39.802Z,22.80
2017-12-03T15:13:07.415Z,20.47
2017-12-03T15:15:35.007Z,19.43
2017-12-03T15:18:03.327Z,18.53
2017-12-03T15:20:31.721Z,18.70
2017-12-03T15:23:00.104Z,20.63
2017-12-03T15:25:27.726Z,21.17
2017-12-03T15:27:55.391Z,23.27
2017-12-03T15:30:23.536Z,20.87
2017-12-03T15:42:36.119Z,17.67
2017-12-03T15:45:04.623Z,17.97
2017-12-03T15:47:33.287Z,21.90
2017-12-03T15:50:01.596Z,17.33
2017-12-03T15:52:29.172Z,23.40
2017-12-03T15:54:56.846Z,21.57
2017-12-03T15:57:24.409Z,21.80
2017-12-03T15:59:52.025Z,22.40
2017-12-03T16:02:19.691Z,24.13
2017-12-03T16:04:47.262Z,22.20
2017-12-03T16:07:14.831Z,21.63
2017-12-03T16:09:42.605Z,24.00
2017-12-03T16:12:10.978Z,20.53
2017-12-03T16:14:38.646Z,21.70
2017-12-03T16:17:06.822Z,28.33
2017-12-03T16:19:34.439Z,20.10
2017-12-03T16:22:02.775Z,21.50
2017-12-03T16:24:30.385Z,29.57
2017-12-03T16:26:59.494Z,30.07
2017-12-03T16:29:28.881Z,28.10
2017-12-03T16:31:57.215Z,29.60
2017-12-03T16:34:24.853Z,28.53
2017-12-03T16:36:52.904Z,30.60
2017-12-03T16:39:21.324Z,29.83
2017-12-03T16:41:48.938Z,25.00
2017-12-03T16:44:16.520Z,32.30
2017-12-03T16:46:44.091Z,35.00
2017-12-03T16:49:12.590Z,34.13
2017-12-03T16:51:40.145Z,32.50
2017-12-03T16:54:07.746Z,42.00
2017-12-03T16:56:41.488Z,39.67
2017-12-03T16:59:09.353Z,39.40
2017-12-03T17:01:36.977Z,47.47
2017-12-03T17:04:04.511Z,37.90
2017-12-03T17:06:32.145Z,35.90
2017-12-03T17:08:59.741Z,45.23
2017-12-03T17:11:27.379Z,38.73
2017-12-03T17:13:54.943Z,36.30
2017-12-03T17:16:22.548Z,33.07
2017-12-03T17:18:50.122Z,39.97
2017-12-03T17:21:17.689Z,33.60
2017-12-03T17:23:46.035Z,35.47
2017-12-03T17:26:13.655Z,39.43
2017-12-03T17:28:41.305Z,31.73
2017-12-03T17:31:08.980Z,26.77
2017-12-03T17:33:36.629Z,37.73
2017-12-03T17:36:04.190Z,31.33
2017-12-03T17:38:32.601Z,45.33
2017-12-03T17:41:00.178Z,40.97
2017-12-03T17:43:27.836Z,36.80
2017-12-03T17:45:55.417Z,39.40
2017-12-03T17:48:22.982Z,33.27
2017-12-03T17:50:50.558Z,36.53
2017-12-03T17:53:18.959Z,45.77
2017-12-03T17:55:46.612Z,42.90
2017-12-03T17:58:15.017Z,36.23
2017-12-03T18:00:42.666Z,34.37
2017-12-03T18:03:10.231Z,37.50
2017-12-03T18:05:38.409Z,42.43
2017-12-03T18:08:06.822Z,38.77
2017-12-03T18:10:34.426Z,37.07
2017-12-03T18:13:02.882Z,41.10
2017-12-03T18:15:30.474Z,35.77
2017-12-03T18:17:58.895Z,47.43
2017-12-03T18:20:26.582Z,43.73
2017-12-03T18:22:54.254Z,35.83
2017-12-03T18:25:21.920Z,42.00
2017-12-03T18:27:49.535Z,49.50
2017-12-03T18:30:17.193Z,46.27
2017-12-03T18:32:44.796Z,49.93
2017-12-03T18:35:12.448Z,52.93
2017-12-03T18:37:40.013Z,54.30
2017-12-03T18:40:07.613Z,45.87
2017-12-03T18:42:35.949Z,54.47
2017-12-03T18:45:03.537Z,45.13
2017-12-03T18:47:31.088Z,53.43
2017-12-03T18:49:58.725Z,56.43
2017-12-03T18:52:26.330Z,45.67
2017-12-03T18:54:54.745Z,56.97
2017-12-03T18:57:22.348Z,46.20
2017-12-03T18:59:49.946Z,48.87
2017-12-03T19:02:18.453Z,62.43
2017-12-03T19:04:46.052Z,69.87
2017-12-03T19:07:13.727Z,79.17
2017-12-03T19:09:41.329Z,69.03
2017-12-03T19:12:09.091Z,81.47
2017-12-03T19:14:36.850Z,58.07
2017-12-03T19:17:05.197Z,60.63
2017-12-03T19:19:32.793Z,63.07
2017-12-03T19:22:00.684Z,70.10
2017-12-03T19:24:28.277Z,72.50
2017-12-03T19:26:56.200Z,78.07
2017-12-03T19:29:23.908Z,65.40
2017-12-03T19:31:51.486Z,78.10
2017-12-03T19:34:19.197Z,66.13
2017-12-03T19:36:46.769Z,70.70
2017-12-03T19:39:14.407Z,71.90
2017-12-03T19:41:42.040Z,68.90
2017-12-03T19:44:10.380Z,57.67
2017-12-03T19:46:38.065Z,74.93
2017-12-03T19:49:05.728Z,67.83
2017-12-03T19:51:33.454Z,60.67
2017-12-03T19:54:10.889Z,59.37
2017-12-03T19:56:38.779Z,69.87
2017-12-03T19:59:07.117Z,62.03
2017-12-03T20:01:34.710Z,79.73
2017-12-03T20:04:02.324Z,71.63
2017-12-03T20:06:29.874Z,60.43
2017-12-03T20:08:57.542Z,79.07
2017-12-03T20:11:25.245Z,63.60
2017-12-03T20:13:52.921Z,79.53
2017-12-03T20:16:21.438Z,74.13
2017-12-03T20:18:49.059Z,73.50
2017-12-03T20:21:16.732Z,62.30
2017-12-03T20:23:45.199Z,70.53
2017-12-03T20:26:12.787Z,69.90
2017-12-03T20:28:41.172Z,67.00
2017-12-03T20:31:09.556Z,72.70
2017-12-03T20:33:37.302Z,78.73
2017-12-03T20:36:05.182Z,86.57
2017-12-03T20:38:33.514Z,78.33
2017-12-03T20:41:01.138Z,70.40
2017-12-03T20:43:28.726Z,82.27
2017-12-03T20:45:56.342Z,83.47
2017-12-03T20:48:24.700Z,71.20
2017-12-03T20:50:52.304Z,82.80
2017-12-03T20:53:19.997Z,98.27
2017-12-03T20:55:47.619Z,95.50
2017-12-03T20:58:15.871Z,85.47
2017-12-03T21:00:43.558Z,81.30
2017-12-03T21:03:11.227Z,84.53
2017-12-03T21:05:38.932Z,86.63
2017-12-03T21:08:06.799Z,63.33
2017-12-03T21:10:34.398Z,83.43
2017-12-03T21:13:02.872Z,77.03
2017-12-03T21:15:31.239Z,80.20
2017-12-03T21:17:58.807Z,81.40
2017-12-03T21:20:26.421Z,61.80
2017-12-03T21:22:53.995Z,78.13
2017-12-03T21:25:21.645Z,70.20
2017-12-03T21:27:49.297Z,75.03
2017-12-03T21:30:16.849Z,69.50
2017-12-03T21:32:44.426Z,55.17
2017-12-03T21:35:12.105Z,72.53
2017-12-03T21:37:39.725Z,63.97
2017-12-03T21:40:07.374Z,82.33
2017-12-03T21:42:35.870Z,72.47
2017-12-03T21:45:03.522Z,72.03
2017-12-03T21:47:31.918Z,77.37
2017-12-03T21:50:00.274Z,76.93
2017-12-03T21:52:28.679Z,80.00
2017-12-03T21:54:57.007Z,66.00
2017-12-03T21:57:24.629Z,78.03
2017-12-03T21:59:52.206Z,79.47
2017-12-03T22:02:20.066Z,77.77
2017-12-03T22:04:47.707Z,82.20
2017-12-03T22:07:17.298Z,84.63
2017-12-03T22:09:45.677Z,75.40
2017-12-03T22:12:13.435Z,62.30
2017-12-03T22:14:41.860Z,65.07
2017-12-03T22:17:09.550Z,58.63
2017-12-03T22:19:37.150Z,76.63
2017-12-03T22:22:05.478Z,79.23
2017-12-03T22:24:33.159Z,80.90
2017-12-03T22:27:00.923Z,92.97
2017-12-03T22:29:29.706Z,78.30
2017-12-03T22:31:57.355Z,69.33
2017-12-03T22:34:24.965Z,61.90
2017-12-03T22:36:53.313Z,66.73
2017-12-03T22:39:20.939Z,68.90
2017-12-03T22:41:48.514Z,72.30
2017-12-03T22:44:16.128Z,71.70
2017-12-03T22:46:44.495Z,74.83
2017-12-03T22:49:12.146Z,74.07
2017-12-03T22:51:39.850Z,74.77
2017-12-03T22:54:07.467Z,71.87
2017-12-03T22:56:35.093Z,83.40
2017-12-03T22:59:02.666Z,66.93
2017-12-03T23:01:30.248Z,68.50
2017-12-03T23:03:58.504Z,74.53
2017-12-03T23:06:26.099Z,71.43
2017-12-03T23:08:53.681Z,79.53
2017-12-03T23:11:22.046Z,65.10
2017-12-03T23:13:49.792Z,69.63
2017-12-03T23:16:17.369Z,75.03
2017-12-03T23:18:44.944Z,70.53
2017-12-03T23:21:13.349Z,54.63
2017-12-03T23:23:40.979Z,62.47
2017-12-03T23:26:08.526Z,66.20
2017-12-03T23:28:36.117Z,56.37
2017-12-03T23:31:04.558Z,62.77
2017-12-03T23:33:32.137Z,69.73
2017-12-03T23:35:59.743Z,67.27
2017-12-03T23:38:27.336Z,62.53
2017-12-03T23:40:54.917Z,65.33
2017-12-03T23:43:22.476Z,65.27
2017-12-03T23:45:50.042Z,71.90
2017-12-03T23:48:17.618Z,73.47
2017-12-03T23:50:46.227Z,77.17
2017-12-03T23:53:13.803Z,79.67
2017-12-03T23:55:41.433Z,69.47
2017-12-03T23:58:09.806Z,83.93
